sensor_id;sensor_type;location;lat;lon;timestamp;P1;durP1;ratioP1;P2;durP2;ratioP2
58661;SDS011;44432;49.786;22.760;2022-09-17T00:02:14;10.60;;;7.80;;
58661;SDS011;44432;49.786;22.760;2022-09-17T00:04:46;11.60;;;7.60;;
58661;SDS011;44432;49.786;22.760;2022-09-17T00:07:16;9.50;;;7.80;;
58661;SDS011;44432;49.786;22.760;2022-09-17T00:09:47;10.80;;;7.60;;
58661;SDS011;44432;49.786;22.760;2022-09-17T00:12:18;9.20;;;7.20;;
58661;SDS011;44432;49.786;22.760;2022-09-17T00:14:48;8.20;;;7.20;;
58661;SDS011;44432;49.786;22.760;2022-09-17T00:17:19;10.30;;;7.10;;
58661;SDS011;44432;49.786;22.760;2022-09-17T00:19:49;11.50;;;6.30;;
58661;SDS011;44432;49.786;22.760;2022-09-17T00:22:19;8.00;;;6.10;;
58661;SDS011;44432;49.786;22.760;2022-09-17T00:24:50;8.80;;;5.90;;
58661;SDS011;44432;49.786;22.760;2022-09-17T00:27:20;6.70;;;5.60;;
58661;SDS011;44432;49.786;22.760;2022-09-17T00:29:51;8.30;;;5.90;;
58661;SDS011;44432;49.786;22.760;2022-09-17T00:32:22;9.30;;;5.60;;
58661;SDS011;44432;49.786;22.760;2022-09-17T00:34:53;9.10;;;6.40;;
58661;SDS011;44432;49.786;22.760;2022-09-17T00:37:24;8.40;;;5.80;;
58661;SDS011;44432;49.786;22.760;2022-09-17T00:39:54;10.10;;;6.90;;
58661;SDS011;44432;49.786;22.760;2022-09-17T00:42:25;10.20;;;6.00;;
58661;SDS011;44432;49.786;22.760;2022-09-17T00:44:55;9.60;;;6.60;;
58661;SDS011;44432;49.786;22.760;2022-09-17T00:47:29;9.00;;;6.70;;
58661;SDS011;44432;49.786;22.760;2022-09-17T00:50:03;10.40;;;6.80;;
58661;SDS011;44432;49.786;22.760;2022-09-17T00:52:38;8.40;;;6.50;;
58661;SDS011;44432;49.786;22.760;2022-09-17T00:55:12;9.30;;;7.30;;
58661;SDS011;44432;49.786;22.760;2022-09-17T00:57:45;13.60;;;7.80;;
58661;SDS011;44432;49.786;22.760;2022-09-17T01:00:16;10.90;;;7.90;;
58661;SDS011;44432;49.786;22.760;2022-09-17T01:02:47;14.30;;;8.50;;
58661;SDS011;44432;49.786;22.760;2022-09-17T01:05:20;13.10;;;9.10;;
58661;SDS011;44432;49.786;22.760;2022-09-17T01:08:02;13.80;;;8.80;;
58661;SDS011;44432;49.786;22.760;2022-09-17T01:10:54;14.60;;;9.30;;
58661;SDS011;44432;49.786;22.760;2022-09-17T01:13:40;11.60;;;8.60;;
58661;SDS011;44432;49.786;22.760;2022-09-17T01:16:19;12.80;;;8.30;;
58661;SDS011;44432;49.786;22.760;2022-09-17T01:19:18;11.50;;;8.10;;
58661;SDS011;44432;49.786;22.760;2022-09-17T01:22:13;12.50;;;8.10;;
58661;SDS011;44432;49.786;22.760;2022-09-17T01:25:02;9.90;;;7.80;;
58661;SDS011;44432;49.786;22.760;2022-09-17T01:31:11;10.00;;;7.20;;
58661;SDS011;44432;49.786;22.760;2022-09-17T01:33:59;8.60;;;7.60;;
58661;SDS011;44432;49.786;22.760;2022-09-17T01:36:41;8.20;;;7.10;;
58661;SDS011;44432;49.786;22.760;2022-09-17T01:39:20;11.10;;;7.40;;
58661;SDS011;44432;49.786;22.760;2022-09-17T01:42:05;11.40;;;6.60;;
58661;SDS011;44432;49.786;22.760;2022-09-17T01:44:46;9.10;;;7.00;;
58661;SDS011;44432;49.786;22.760;2022-09-17T01:47:23;12.00;;;7.20;;
58661;SDS011;44432;49.786;22.760;2022-09-17T01:50:00;8.00;;;6.60;;
58661;SDS011;44432;49.786;22.760;2022-09-17T01:52:34;9.20;;;6.70;;
58661;SDS011;44432;49.786;22.760;2022-09-17T01:55:09;10.10;;;6.90;;
58661;SDS011;44432;49.786;22.760;2022-09-17T01:57:43;13.50;;;6.90;;
58661;SDS011;44432;49.786;22.760;2022-09-17T02:00:20;9.60;;;6.60;;
58661;SDS011;44432;49.786;22.760;2022-09-17T02:02:53;11.20;;;6.80;;
58661;SDS011;44432;49.786;22.760;2022-09-17T02:05:29;8.20;;;6.50;;
58661;SDS011;44432;49.786;22.760;2022-09-17T02:08:05;10.30;;;6.60;;
58661;SDS011;44432;49.786;22.760;2022-09-17T02:10:41;9.40;;;6.60;;
58661;SDS011;44432;49.786;22.760;2022-09-17T02:13:23;7.50;;;6.50;;
58661;SDS011;44432;49.786;22.760;2022-09-17T02:16:00;10.50;;;7.10;;
58661;SDS011;44432;49.786;22.760;2022-09-17T02:18:35;9.10;;;6.80;;
58661;SDS011;44432;49.786;22.760;2022-09-17T02:21:10;8.70;;;7.50;;
58661;SDS011;44432;49.786;22.760;2022-09-17T02:23:46;11.30;;;7.10;;
58661;SDS011;44432;49.786;22.760;2022-09-17T02:26:21;11.10;;;7.50;;
58661;SDS011;44432;49.786;22.760;2022-09-17T02:28:54;10.40;;;7.20;;
58661;SDS011;44432;49.786;22.760;2022-09-17T02:31:29;9.80;;;7.00;;
58661;SDS011;44432;49.786;22.760;2022-09-17T02:34:00;10.40;;;7.00;;
58661;SDS011;44432;49.786;22.760;2022-09-17T02:36:32;7.80;;;6.80;;
58661;SDS011;44432;49.786;22.760;2022-09-17T02:39:03;9.20;;;6.90;;
58661;SDS011;44432;49.786;22.760;2022-09-17T02:41:37;8.30;;;7.10;;
58661;SDS011;44432;49.786;22.760;2022-09-17T02:44:20;12.90;;;7.60;;
58661;SDS011;44432;49.786;22.760;2022-09-17T02:47:10;10.90;;;7.00;;
58661;SDS011;44432;49.786;22.760;2022-09-17T02:50:05;9.90;;;6.90;;
58661;SDS011;44432;49.786;22.760;2022-09-17T02:52:48;10.40;;;7.20;;
58661;SDS011;44432;49.786;22.760;2022-09-17T02:55:33;11.00;;;7.30;;
58661;SDS011;44432;49.786;22.760;2022-09-17T02:58:13;10.80;;;7.50;;
58661;SDS011;44432;49.786;22.760;2022-09-17T03:00:52;10.80;;;7.10;;
58661;SDS011;44432;49.786;22.760;2022-09-17T03:03:29;10.70;;;6.60;;
58661;SDS011;44432;49.786;22.760;2022-09-17T03:06:04;9.60;;;7.20;;
58661;SDS011;44432;49.786;22.760;2022-09-17T03:08:35;12.60;;;7.90;;
58661;SDS011;44432;49.786;22.760;2022-09-17T03:11:09;10.10;;;6.30;;
58661;SDS011;44432;49.786;22.760;2022-09-17T03:13:40;9.00;;;6.30;;
58661;SDS011;44432;49.786;22.760;2022-09-17T03:16:11;10.50;;;6.70;;
58661;SDS011;44432;49.786;22.760;2022-09-17T03:18:41;7.90;;;6.10;;
58661;SDS011;44432;49.786;22.760;2022-09-17T03:21:12;9.40;;;5.90;;
58661;SDS011;44432;49.786;22.760;2022-09-17T03:23:42;7.50;;;6.10;;
58661;SDS011;44432;49.786;22.760;2022-09-17T03:26:13;7.30;;;6.00;;
58661;SDS011;44432;49.786;22.760;2022-09-17T03:28:44;7.20;;;6.00;;
58661;SDS011;44432;49.786;22.760;2022-09-17T03:31:14;6.70;;;5.70;;
58661;SDS011;44432;49.786;22.760;2022-09-17T03:33:45;8.90;;;5.90;;
58661;SDS011;44432;49.786;22.760;2022-09-17T03:36:16;11.40;;;6.10;;
58661;SDS011;44432;49.786;22.760;2022-09-17T03:38:47;7.80;;;5.50;;
58661;SDS011;44432;49.786;22.760;2022-09-17T03:41:21;7.70;;;5.60;;
58661;SDS011;44432;49.786;22.760;2022-09-17T03:43:52;13.90;;;9.10;;
58661;SDS011;44432;49.786;22.760;2022-09-17T03:46:22;9.60;;;6.50;;
58661;SDS011;44432;49.786;22.760;2022-09-17T03:48:53;9.90;;;6.40;;
58661;SDS011;44432;49.786;22.760;2022-09-17T03:51:23;8.00;;;6.30;;
58661;SDS011;44432;49.786;22.760;2022-09-17T03:53:54;10.80;;;6.70;;
58661;SDS011;44432;49.786;22.760;2022-09-17T03:56:25;9.20;;;6.40;;
58661;SDS011;44432;49.786;22.760;2022-09-17T03:58:57;7.40;;;6.20;;
58661;SDS011;44432;49.786;22.760;2022-09-17T04:01:28;11.10;;;6.20;;
58661;SDS011;44432;49.786;22.760;2022-09-17T04:03:59;12.50;;;6.70;;
58661;SDS011;44432;49.786;22.760;2022-09-17T04:06:30;7.50;;;6.60;;
58661;SDS011;44432;49.786;22.760;2022-09-17T04:09:00;13.00;;;6.80;;
58661;SDS011;44432;49.786;22.760;2022-09-17T04:11:32;7.70;;;6.30;;
58661;SDS011;44432;49.786;22.760;2022-09-17T04:14:02;7.80;;;6.50;;
58661;SDS011;44432;49.786;22.760;2022-09-17T04:16:33;9.80;;;6.80;;
58661;SDS011;44432;49.786;22.760;2022-09-17T04:19:04;9.70;;;8.10;;
58661;SDS011;44432;49.786;22.760;2022-09-17T04:21:34;13.60;;;8.10;;
58661;SDS011;44432;49.786;22.760;2022-09-17T04:24:05;12.70;;;6.60;;
58661;SDS011;44432;49.786;22.760;2022-09-17T04:26:36;11.70;;;7.10;;
58661;SDS011;44432;49.786;22.760;2022-09-17T04:29:06;9.10;;;6.80;;
58661;SDS011;44432;49.786;22.760;2022-09-17T04:31:37;9.40;;;6.70;;
58661;SDS011;44432;49.786;22.760;2022-09-17T04:34:08;8.80;;;6.90;;
58661;SDS011;44432;49.786;22.760;2022-09-17T04:36:38;10.00;;;6.90;;
58661;SDS011;44432;49.786;22.760;2022-09-17T04:39:09;11.60;;;7.20;;
58661;SDS011;44432;49.786;22.760;2022-09-17T04:41:40;11.70;;;7.00;;
58661;SDS011;44432;49.786;22.760;2022-09-17T04:44:10;9.70;;;6.80;;
58661;SDS011;44432;49.786;22.760;2022-09-17T04:46:41;11.40;;;6.90;;
58661;SDS011;44432;49.786;22.760;2022-09-17T04:49:12;9.30;;;7.30;;
58661;SDS011;44432;49.786;22.760;2022-09-17T04:51:43;11.90;;;6.40;;
58661;SDS011;44432;49.786;22.760;2022-09-17T04:54:13;12.10;;;7.20;;
58661;SDS011;44432;49.786;22.760;2022-09-17T04:56:44;11.50;;;6.80;;
58661;SDS011;44432;49.786;22.760;2022-09-17T04:59:15;12.20;;;6.70;;
58661;SDS011;44432;49.786;22.760;2022-09-17T05:01:46;10.30;;;6.20;;
58661;SDS011;44432;49.786;22.760;2022-09-17T05:04:17;13.50;;;5.90;;
58661;SDS011;44432;49.786;22.760;2022-09-17T05:06:47;9.90;;;5.50;;
58661;SDS011;44432;49.786;22.760;2022-09-17T05:09:18;8.80;;;5.70;;
58661;SDS011;44432;49.786;22.760;2022-09-17T05:11:49;6.80;;;5.40;;
58661;SDS011;44432;49.786;22.760;2022-09-17T05:14:19;7.70;;;6.10;;
58661;SDS011;44432;49.786;22.760;2022-09-17T05:16:50;10.80;;;6.00;;
58661;SDS011;44432;49.786;22.760;2022-09-17T05:19:21;15.30;;;5.60;;
58661;SDS011;44432;49.786;22.760;2022-09-17T05:21:52;7.10;;;5.10;;
58661;SDS011;44432;49.786;22.760;2022-09-17T05:24:22;9.10;;;5.60;;
58661;SDS011;44432;49.786;22.760;2022-09-17T05:26:53;9.40;;;5.20;;
58661;SDS011;44432;49.786;22.760;2022-09-17T05:29:24;7.20;;;5.70;;
58661;SDS011;44432;49.786;22.760;2022-09-17T05:31:54;9.00;;;6.00;;
58661;SDS011;44432;49.786;22.760;2022-09-17T05:34:25;10.00;;;5.90;;
58661;SDS011;44432;49.786;22.760;2022-09-17T05:36:56;10.10;;;6.60;;
58661;SDS011;44432;49.786;22.760;2022-09-17T05:39:26;10.30;;;6.40;;
58661;SDS011;44432;49.786;22.760;2022-09-17T05:41:57;17.60;;;9.40;;
58661;SDS011;44432;49.786;22.760;2022-09-17T05:44:28;11.10;;;7.70;;
58661;SDS011;44432;49.786;22.760;2022-09-17T05:46:59;10.50;;;6.70;;
58661;SDS011;44432;49.786;22.760;2022-09-17T05:49:29;12.50;;;6.00;;
58661;SDS011;44432;49.786;22.760;2022-09-17T05:52:00;10.90;;;5.40;;
58661;SDS011;44432;49.786;22.760;2022-09-17T05:54:31;9.00;;;7.50;;
58661;SDS011;44432;49.786;22.760;2022-09-17T05:57:01;11.80;;;7.50;;
58661;SDS011;44432;49.786;22.760;2022-09-17T05:59:32;11.70;;;6.30;;
58661;SDS011;44432;49.786;22.760;2022-09-17T06:02:03;9.30;;;5.40;;
58661;SDS011;44432;49.786;22.760;2022-09-17T06:04:34;8.50;;;5.70;;
58661;SDS011;44432;49.786;22.760;2022-09-17T06:07:05;11.00;;;6.00;;
58661;SDS011;44432;49.786;22.760;2022-09-17T06:09:36;11.90;;;5.90;;
58661;SDS011;44432;49.786;22.760;2022-09-17T06:12:07;12.80;;;5.70;;
58661;SDS011;44432;49.786;22.760;2022-09-17T06:14:38;9.40;;;5.10;;
58661;SDS011;44432;49.786;22.760;2022-09-17T06:17:08;8.70;;;5.90;;
58661;SDS011;44432;49.786;22.760;2022-09-17T06:19:39;11.00;;;5.70;;
58661;SDS011;44432;49.786;22.760;2022-09-17T06:22:09;11.00;;;6.30;;
58661;SDS011;44432;49.786;22.760;2022-09-17T06:24:40;9.70;;;5.90;;
58661;SDS011;44432;49.786;22.760;2022-09-17T06:27:10;10.50;;;5.60;;
58661;SDS011;44432;49.786;22.760;2022-09-17T06:29:41;8.60;;;5.80;;
58661;SDS011;44432;49.786;22.760;2022-09-17T06:32:12;9.00;;;5.70;;
58661;SDS011;44432;49.786;22.760;2022-09-17T06:34:43;10.30;;;6.10;;
58661;SDS011;44432;49.786;22.760;2022-09-17T06:37:15;8.80;;;5.40;;
58661;SDS011;44432;49.786;22.760;2022-09-17T06:39:46;8.40;;;5.10;;
58661;SDS011;44432;49.786;22.760;2022-09-17T06:42:16;10.30;;;4.80;;
58661;SDS011;44432;49.786;22.760;2022-09-17T06:44:47;7.20;;;5.20;;
58661;SDS011;44432;49.786;22.760;2022-09-17T06:47:17;8.50;;;4.80;;
58661;SDS011;44432;49.786;22.760;2022-09-17T06:49:48;7.90;;;4.90;;
58661;SDS011;44432;49.786;22.760;2022-09-17T06:52:19;10.60;;;5.30;;
58661;SDS011;44432;49.786;22.760;2022-09-17T06:54:50;8.70;;;5.30;;
58661;SDS011;44432;49.786;22.760;2022-09-17T06:57:20;9.30;;;6.40;;
58661;SDS011;44432;49.786;22.760;2022-09-17T06:59:51;7.20;;;5.00;;
58661;SDS011;44432;49.786;22.760;2022-09-17T07:02:21;10.20;;;7.40;;
58661;SDS011;44432;49.786;22.760;2022-09-17T07:04:52;7.40;;;5.50;;
58661;SDS011;44432;49.786;22.760;2022-09-17T07:07:22;6.00;;;4.10;;
58661;SDS011;44432;49.786;22.760;2022-09-17T07:09:53;6.10;;;4.30;;
58661;SDS011;44432;49.786;22.760;2022-09-17T07:12:23;7.40;;;4.50;;
58661;SDS011;44432;49.786;22.760;2022-09-17T07:14:54;8.00;;;5.10;;
58661;SDS011;44432;49.786;22.760;2022-09-17T07:17:24;9.70;;;6.80;;
58661;SDS011;44432;49.786;22.760;2022-09-17T07:19:58;7.50;;;5.80;;
58661;SDS011;44432;49.786;22.760;2022-09-17T07:22:29;7.20;;;4.30;;
58661;SDS011;44432;49.786;22.760;2022-09-17T07:25:00;7.90;;;4.50;;
58661;SDS011;44432;49.786;22.760;2022-09-17T07:27:31;6.70;;;4.60;;
58661;SDS011;44432;49.786;22.760;2022-09-17T07:30:02;7.40;;;4.00;;
58661;SDS011;44432;49.786;22.760;2022-09-17T07:32:33;9.20;;;4.50;;
58661;SDS011;44432;49.786;22.760;2022-09-17T07:35:04;8.00;;;3.90;;
58661;SDS011;44432;49.786;22.760;2022-09-17T07:37:36;8.40;;;4.40;;
58661;SDS011;44432;49.786;22.760;2022-09-17T07:40:07;6.80;;;4.50;;
58661;SDS011;44432;49.786;22.760;2022-09-17T07:42:38;8.10;;;4.80;;
58661;SDS011;44432;49.786;22.760;2022-09-17T07:45:09;5.60;;;4.00;;
58661;SDS011;44432;49.786;22.760;2022-09-17T07:47:40;7.10;;;4.80;;
58661;SDS011;44432;49.786;22.760;2022-09-17T07:50:11;6.50;;;4.00;;
58661;SDS011;44432;49.786;22.760;2022-09-17T07:52:45;6.70;;;3.80;;
58661;SDS011;44432;49.786;22.760;2022-09-17T07:55:16;6.80;;;4.30;;
58661;SDS011;44432;49.786;22.760;2022-09-17T07:57:50;10.10;;;6.90;;
58661;SDS011;44432;49.786;22.760;2022-09-17T08:00:21;8.90;;;4.70;;
58661;SDS011;44432;49.786;22.760;2022-09-17T08:02:55;7.40;;;4.20;;
58661;SDS011;44432;49.786;22.760;2022-09-17T08:05:26;6.90;;;3.90;;
58661;SDS011;44432;49.786;22.760;2022-09-17T08:07:56;6.50;;;3.00;;
58661;SDS011;44432;49.786;22.760;2022-09-17T08:10:27;7.40;;;3.30;;
58661;SDS011;44432;49.786;22.760;2022-09-17T08:12:58;6.10;;;3.30;;
58661;SDS011;44432;49.786;22.760;2022-09-17T08:15:28;4.90;;;2.80;;
58661;SDS011;44432;49.786;22.760;2022-09-17T08:17:59;7.80;;;2.80;;
58661;SDS011;44432;49.786;22.760;2022-09-17T08:20:29;4.90;;;2.60;;
58661;SDS011;44432;49.786;22.760;2022-09-17T08:23:00;10.70;;;4.00;;
58661;SDS011;44432;49.786;22.760;2022-09-17T08:25:30;7.80;;;3.10;;
58661;SDS011;44432;49.786;22.760;2022-09-17T08:28:01;4.20;;;2.50;;
58661;SDS011;44432;49.786;22.760;2022-09-17T08:30:31;6.10;;;2.60;;
58661;SDS011;44432;49.786;22.760;2022-09-17T08:33:02;6.70;;;3.00;;
58661;SDS011;44432;49.786;22.760;2022-09-17T08:35:33;6.20;;;2.70;;
58661;SDS011;44432;49.786;22.760;2022-09-17T08:38:03;4.60;;;2.20;;
58661;SDS011;44432;49.786;22.760;2022-09-17T08:40:35;5.00;;;2.50;;
58661;SDS011;44432;49.786;22.760;2022-09-17T08:43:15;4.00;;;2.30;;
58661;SDS011;44432;49.786;22.760;2022-09-17T08:45:51;5.90;;;2.40;;
58661;SDS011;44432;49.786;22.760;2022-09-17T08:48:23;4.50;;;2.30;;
58661;SDS011;44432;49.786;22.760;2022-09-17T08:50:58;3.80;;;2.00;;
58661;SDS011;44432;49.786;22.760;2022-09-17T08:53:32;6.60;;;2.20;;
58661;SDS011;44432;49.786;22.760;2022-09-17T08:56:17;4.40;;;2.10;;
58661;SDS011;44432;49.786;22.760;2022-09-17T08:58:55;4.40;;;2.30;;
58661;SDS011;44432;49.786;22.760;2022-09-17T09:01:33;4.50;;;1.90;;
58661;SDS011;44432;49.786;22.760;2022-09-17T09:07:22;4.90;;;2.30;;
58661;SDS011;44432;49.786;22.760;2022-09-17T09:09:56;5.60;;;2.70;;
58661;SDS011;44432;49.786;22.760;2022-09-17T09:12:36;5.70;;;2.10;;
58661;SDS011;44432;49.786;22.760;2022-09-17T09:15:14;3.40;;;1.60;;
58661;SDS011;44432;49.786;22.760;2022-09-17T09:17:51;3.70;;;1.60;;
58661;SDS011;44432;49.786;22.760;2022-09-17T09:20:27;2.20;;;1.30;;
58661;SDS011;44432;49.786;22.760;2022-09-17T09:23:06;4.60;;;1.20;;
58661;SDS011;44432;49.786;22.760;2022-09-17T09:25:49;2.80;;;1.30;;
58661;SDS011;44432;49.786;22.760;2022-09-17T09:34:10;2.60;;;1.10;;
58661;SDS011;44432;49.786;22.760;2022-09-17T09:36:42;3.40;;;1.00;;
58661;SDS011;44432;49.786;22.760;2022-09-17T09:39:14;2.90;;;1.40;;
58661;SDS011;44432;49.786;22.760;2022-09-17T09:41:51;3.70;;;1.30;;
58661;SDS011;44432;49.786;22.760;2022-09-17T09:44:26;2.40;;;1.00;;
58661;SDS011;44432;49.786;22.760;2022-09-17T09:47:12;5.00;;;1.00;;
58661;SDS011;44432;49.786;22.760;2022-09-17T09:49:57;4.30;;;1.20;;
58661;SDS011;44432;49.786;22.760;2022-09-17T09:55:31;2.20;;;1.00;;
58661;SDS011;44432;49.786;22.760;2022-09-17T09:58:19;7.60;;;3.50;;
58661;SDS011;44432;49.786;22.760;2022-09-17T10:00:55;3.40;;;1.20;;
58661;SDS011;44432;49.786;22.760;2022-09-17T10:03:27;3.00;;;1.40;;
58661;SDS011;44432;49.786;22.760;2022-09-17T10:06:00;2.70;;;1.40;;
58661;SDS011;44432;49.786;22.760;2022-09-17T10:08:33;6.30;;;4.30;;
58661;SDS011;44432;49.786;22.760;2022-09-17T10:11:08;4.50;;;2.20;;
58661;SDS011;44432;49.786;22.760;2022-09-17T10:13:49;0.80;;;0.70;;
58661;SDS011;44432;49.786;22.760;2022-09-17T10:16:20;5.10;;;1.20;;
58661;SDS011;44432;49.786;22.760;2022-09-17T10:19:08;4.60;;;2.70;;
58661;SDS011;44432;49.786;22.760;2022-09-17T10:21:43;3.80;;;1.60;;
58661;SDS011;44432;49.786;22.760;2022-09-17T10:24:17;4.90;;;1.40;;
58661;SDS011;44432;49.786;22.760;2022-09-17T10:26:53;6.10;;;3.80;;
58661;SDS011;44432;49.786;22.760;2022-09-17T10:29:30;1.90;;;1.00;;
58661;SDS011;44432;49.786;22.760;2022-09-17T10:32:01;3.80;;;1.60;;
58661;SDS011;44432;49.786;22.760;2022-09-17T10:34:33;2.80;;;1.00;;
58661;SDS011;44432;49.786;22.760;2022-09-17T10:37:04;2.70;;;1.10;;
58661;SDS011;44432;49.786;22.760;2022-09-17T10:39:57;2.10;;;1.40;;
58661;SDS011;44432;49.786;22.760;2022-09-17T10:42:28;2.60;;;0.80;;
58661;SDS011;44432;49.786;22.760;2022-09-17T10:44:58;4.60;;;0.90;;
58661;SDS011;44432;49.786;22.760;2022-09-17T10:47:29;1.60;;;0.80;;
58661;SDS011;44432;49.786;22.760;2022-09-17T10:50:04;1.80;;;0.90;;
58661;SDS011;44432;49.786;22.760;2022-09-17T10:52:46;1.50;;;0.90;;
58661;SDS011;44432;49.786;22.760;2022-09-17T10:55:19;2.90;;;0.80;;
58661;SDS011;44432;49.786;22.760;2022-09-17T10:58:07;2.00;;;1.20;;
58661;SDS011;44432;49.786;22.760;2022-09-17T11:00:51;3.70;;;1.80;;
58661;SDS011;44432;49.786;22.760;2022-09-17T11:06:47;4.40;;;1.20;;
58661;SDS011;44432;49.786;22.760;2022-09-17T11:09:29;2.80;;;1.20;;
58661;SDS011;44432;49.786;22.760;2022-09-17T11:15:00;4.50;;;2.10;;
58661;SDS011;44432;49.786;22.760;2022-09-17T11:17:44;4.00;;;1.40;;
58661;SDS011;44432;49.786;22.760;2022-09-17T11:20:39;3.30;;;1.30;;
58661;SDS011;44432;49.786;22.760;2022-09-17T11:23:29;2.90;;;1.70;;
58661;SDS011;44432;49.786;22.760;2022-09-17T11:26:13;3.30;;;1.50;;
58661;SDS011;44432;49.786;22.760;2022-09-17T11:31:29;2.70;;;1.10;;
58661;SDS011;44432;49.786;22.760;2022-09-17T11:34:09;3.70;;;1.30;;
58661;SDS011;44432;49.786;22.760;2022-09-17T11:36:58;2.70;;;1.30;;
58661;SDS011;44432;49.786;22.760;2022-09-17T11:39:35;2.50;;;1.40;;
58661;SDS011;44432;49.786;22.760;2022-09-17T11:42:13;2.60;;;1.10;;
58661;SDS011;44432;49.786;22.760;2022-09-17T11:44:50;2.30;;;1.00;;
58661;SDS011;44432;49.786;22.760;2022-09-17T11:47:27;3.80;;;1.10;;
58661;SDS011;44432;49.786;22.760;2022-09-17T11:50:03;2.00;;;1.00;;
58661;SDS011;44432;49.786;22.760;2022-09-17T11:52:46;3.40;;;1.50;;
58661;SDS011;44432;49.786;22.760;2022-09-17T11:55:29;3.60;;;1.10;;
58661;SDS011;44432;49.786;22.760;2022-09-17T11:58:08;1.40;;;1.10;;
58661;SDS011;44432;49.786;22.760;2022-09-17T12:00:45;5.50;;;3.40;;
58661;SDS011;44432;49.786;22.760;2022-09-17T12:03:22;4.00;;;1.20;;
58661;SDS011;44432;49.786;22.760;2022-09-17T12:05:59;2.00;;;1.00;;
58661;SDS011;44432;49.786;22.760;2022-09-17T12:08:36;1.80;;;1.00;;
58661;SDS011;44432;49.786;22.760;2022-09-17T12:11:13;3.80;;;1.90;;
58661;SDS011;44432;49.786;22.760;2022-09-17T12:13:48;2.50;;;1.00;;
58661;SDS011;44432;49.786;22.760;2022-09-17T12:16:21;2.80;;;1.20;;
58661;SDS011;44432;49.786;22.760;2022-09-17T12:18:58;2.70;;;1.20;;
58661;SDS011;44432;49.786;22.760;2022-09-17T12:21:37;1.90;;;1.00;;
58661;SDS011;44432;49.786;22.760;2022-09-17T12:24:13;7.00;;;4.60;;
58661;SDS011;44432;49.786;22.760;2022-09-17T12:26:52;2.40;;;1.00;;
58661;SDS011;44432;49.786;22.760;2022-09-17T12:29:33;2.30;;;1.10;;
58661;SDS011;44432;49.786;22.760;2022-09-17T12:32:16;5.00;;;1.10;;
58661;SDS011;44432;49.786;22.760;2022-09-17T12:35:04;1.80;;;1.20;;
58661;SDS011;44432;49.786;22.760;2022-09-17T12:37:47;2.40;;;1.40;;
58661;SDS011;44432;49.786;22.760;2022-09-17T12:40:31;4.00;;;1.50;;
58661;SDS011;44432;49.786;22.760;2022-09-17T12:43:18;3.60;;;1.40;;
58661;SDS011;44432;49.786;22.760;2022-09-17T12:46:07;2.60;;;1.50;;
58661;SDS011;44432;49.786;22.760;2022-09-17T12:51:55;2.60;;;1.40;;
58661;SDS011;44432;49.786;22.760;2022-09-17T12:57:23;2.70;;;1.20;;
58661;SDS011;44432;49.786;22.760;2022-09-17T13:00:07;2.20;;;1.40;;
58661;SDS011;44432;49.786;22.760;2022-09-17T13:02:41;3.50;;;1.40;;
58661;SDS011;44432;49.786;22.760;2022-09-17T13:05:26;2.90;;;1.60;;
58661;SDS011;44432;49.786;22.760;2022-09-17T13:08:21;4.00;;;1.50;;
58661;SDS011;44432;49.786;22.760;2022-09-17T13:11:15;3.60;;;1.70;;
58661;SDS011;44432;49.786;22.760;2022-09-17T13:14:03;2.10;;;1.40;;
58661;SDS011;44432;49.786;22.760;2022-09-17T13:16:48;2.90;;;1.40;;
58661;SDS011;44432;49.786;22.760;2022-09-17T13:19:26;2.10;;;1.50;;
58661;SDS011;44432;49.786;22.760;2022-09-17T13:22:05;4.60;;;2.50;;
58661;SDS011;44432;49.786;22.760;2022-09-17T13:24:45;2.50;;;1.90;;
58661;SDS011;44432;49.786;22.760;2022-09-17T13:27:30;3.00;;;2.10;;
58661;SDS011;44432;49.786;22.760;2022-09-17T13:30:04;4.10;;;2.20;;
58661;SDS011;44432;49.786;22.760;2022-09-17T13:38:23;2.70;;;1.70;;
58661;SDS011;44432;49.786;22.760;2022-09-17T13:41:00;2.70;;;1.60;;
58661;SDS011;44432;49.786;22.760;2022-09-17T13:43:50;2.30;;;1.40;;
58661;SDS011;44432;49.786;22.760;2022-09-17T13:46:22;2.40;;;1.30;;
58661;SDS011;44432;49.786;22.760;2022-09-17T13:48:56;2.20;;;1.40;;
58661;SDS011;44432;49.786;22.760;2022-09-17T13:51:43;1.40;;;1.30;;
58661;SDS011;44432;49.786;22.760;2022-09-17T13:54:17;4.70;;;1.50;;
58661;SDS011;44432;49.786;22.760;2022-09-17T13:57:01;2.70;;;1.50;;
58661;SDS011;44432;49.786;22.760;2022-09-17T13:59:36;2.50;;;1.40;;
58661;SDS011;44432;49.786;22.760;2022-09-17T14:08:28;2.20;;;1.60;;
58661;SDS011;44432;49.786;22.760;2022-09-17T14:17:08;4.60;;;1.90;;
58661;SDS011;44432;49.786;22.760;2022-09-17T14:19:42;2.80;;;1.60;;
58661;SDS011;44432;49.786;22.760;2022-09-17T14:22:16;2.60;;;1.50;;
58661;SDS011;44432;49.786;22.760;2022-09-17T14:24:52;2.60;;;1.60;;
58661;SDS011;44432;49.786;22.760;2022-09-17T14:27:29;2.50;;;1.60;;
58661;SDS011;44432;49.786;22.760;2022-09-17T14:30:13;2.10;;;1.30;;
58661;SDS011;44432;49.786;22.760;2022-09-17T14:32:51;2.20;;;1.40;;
58661;SDS011;44432;49.786;22.760;2022-09-17T14:35:30;3.80;;;1.90;;
58661;SDS011;44432;49.786;22.760;2022-09-17T14:38:07;2.70;;;1.90;;
58661;SDS011;44432;49.786;22.760;2022-09-17T14:40:43;3.60;;;1.80;;
58661;SDS011;44432;49.786;22.760;2022-09-17T14:43:17;11.10;;;5.80;;
58661;SDS011;44432;49.786;22.760;2022-09-17T14:45:51;14.80;;;7.60;;
58661;SDS011;44432;49.786;22.760;2022-09-17T14:48:27;6.30;;;3.00;;
58661;SDS011;44432;49.786;22.760;2022-09-17T14:54:15;5.00;;;2.60;;
58661;SDS011;44432;49.786;22.760;2022-09-17T14:56:52;4.50;;;2.10;;
58661;SDS011;44432;49.786;22.760;2022-09-17T14:59:46;3.20;;;1.90;;
58661;SDS011;44432;49.786;22.760;2022-09-17T15:02:22;3.00;;;2.10;;
58661;SDS011;44432;49.786;22.760;2022-09-17T15:04:57;5.80;;;3.10;;
58661;SDS011;44432;49.786;22.760;2022-09-17T15:07:29;8.00;;;4.10;;
58661;SDS011;44432;49.786;22.760;2022-09-17T15:10:06;7.20;;;3.60;;
58661;SDS011;44432;49.786;22.760;2022-09-17T15:12:41;7.00;;;3.10;;
58661;SDS011;44432;49.786;22.760;2022-09-17T15:15:20;3.90;;;2.40;;
58661;SDS011;44432;49.786;22.760;2022-09-17T15:17:52;4.50;;;2.20;;
58661;SDS011;44432;49.786;22.760;2022-09-17T15:20:24;4.80;;;2.50;;
58661;SDS011;44432;49.786;22.760;2022-09-17T15:23:01;6.40;;;2.80;;
58661;SDS011;44432;49.786;22.760;2022-09-17T15:25:40;4.30;;;2.70;;
58661;SDS011;44432;49.786;22.760;2022-09-17T15:28:16;7.10;;;3.30;;
58661;SDS011;44432;49.786;22.760;2022-09-17T15:30:56;5.80;;;3.10;;
58661;SDS011;44432;49.786;22.760;2022-09-17T15:33:26;6.10;;;3.20;;
58661;SDS011;44432;49.786;22.760;2022-09-17T15:36:00;7.40;;;3.50;;
58661;SDS011;44432;49.786;22.760;2022-09-17T15:38:42;7.80;;;3.70;;
58661;SDS011;44432;49.786;22.760;2022-09-17T15:41:26;5.40;;;3.30;;
58661;SDS011;44432;49.786;22.760;2022-09-17T15:46:54;7.10;;;3.70;;
58661;SDS011;44432;49.786;22.760;2022-09-17T15:49:52;12.30;;;4.40;;
58661;SDS011;44432;49.786;22.760;2022-09-17T15:52:40;7.70;;;4.50;;
58661;SDS011;44432;49.786;22.760;2022-09-17T15:58:00;6.30;;;3.60;;
58661;SDS011;44432;49.786;22.760;2022-09-17T16:00:33;8.50;;;4.00;;
58661;SDS011;44432;49.786;22.760;2022-09-17T16:03:33;8.60;;;4.10;;
58661;SDS011;44432;49.786;22.760;2022-09-17T16:06:37;5.90;;;3.60;;
58661;SDS011;44432;49.786;22.760;2022-09-17T16:12:17;7.60;;;4.00;;
58661;SDS011;44432;49.786;22.760;2022-09-17T16:14:50;8.00;;;3.80;;
58661;SDS011;44432;49.786;22.760;2022-09-17T16:17:41;7.50;;;4.00;;
58661;SDS011;44432;49.786;22.760;2022-09-17T16:20:15;8.40;;;4.20;;